createdAt,value
2023-03-29T00:02:30.095Z,14.79
2023-03-29T00:05:35.043Z,14.79
2023-03-29T00:08:37.954Z,14.69
2023-03-29T00:11:39.514Z,14.67
2023-03-29T00:14:41.062Z,14.60
2023-03-29T00:17:42.558Z,14.57
2023-03-29T00:20:44.159Z,14.66
2023-03-29T00:23:45.762Z,14.65
2023-03-29T00:26:47.285Z,14.57
2023-03-29T00:29:48.756Z,14.38
2023-03-29T00:32:51.446Z,14.40
2023-03-29T00:35:53.330Z,14.54
2023-03-29T00:38:56.392Z,14.60
2023-03-29T00:41:59.099Z,14.72
2023-03-29T00:45:04.098Z,14.80
2023-03-29T00:48:32.781Z,14.76
2023-03-29T00:51:38.216Z,14.78
2023-03-29T00:54:44.681Z,14.73
2023-03-29T00:57:46.899Z,14.74
2023-03-29T01:00:55.446Z,14.64
2023-03-29T01:04:09.901Z,14.63
2023-03-29T01:07:23.229Z,14.71
2023-03-29T01:10:38.874Z,14.77
2023-03-29T01:13:57.725Z,14.91
2023-03-29T01:16:59.397Z,14.95
2023-03-29T01:20:14.261Z,14.78
2023-03-29T01:23:22.177Z,14.73
2023-03-29T01:26:56.098Z,14.81
2023-03-29T01:30:02.040Z,14.81
2023-03-29T01:33:12.576Z,14.82
2023-03-29T01:36:34.941Z,14.77
2023-03-29T01:39:36.474Z,14.74
2023-03-29T01:42:56.605Z,14.73
2023-03-29T01:46:08.321Z,14.78
2023-03-29T01:49:17.183Z,14.76
2023-03-29T01:52:25.743Z,14.75
2023-03-29T01:55:33.402Z,14.74
2023-03-29T01:58:41.553Z,14.72
2023-03-29T02:01:53.915Z,14.78
2023-03-29T02:04:57.465Z,14.81
2023-03-29T02:08:01.659Z,14.80
2023-03-29T02:11:04.664Z,14.81
2023-03-29T02:14:07.671Z,14.77
2023-03-29T02:17:28.354Z,14.73
2023-03-29T02:20:40.509Z,14.71
2023-03-29T02:23:45.938Z,14.80
2023-03-29T02:26:48.763Z,14.89
2023-03-29T02:29:50.511Z,14.88
2023-03-29T02:33:04.881Z,14.81
2023-03-29T02:36:13.302Z,14.73
2023-03-29T02:39:17.701Z,14.68
2023-03-29T02:42:20.455Z,14.72
2023-03-29T02:45:24.042Z,14.79
2023-03-29T02:48:28.598Z,14.90
2023-03-29T02:51:34.106Z,14.97
2023-03-29T02:54:37.982Z,15.02
2023-03-29T02:57:40.921Z,15.02
2023-03-29T03:00:46.349Z,14.95
2023-03-29T03:03:48.066Z,15.01
2023-03-29T03:06:50.107Z,15.06
2023-03-29T03:09:51.942Z,15.12
2023-03-29T03:12:53.558Z,15.10
2023-03-29T03:15:56.197Z,15.07
2023-03-29T03:18:57.814Z,15.12
2023-03-29T03:21:59.718Z,15.08
2023-03-29T03:25:01.259Z,15.01
2023-03-29T03:28:02.794Z,15.02
2023-03-29T03:31:05.215Z,15.04
2023-03-29T03:34:32.349Z,15.18
2023-03-29T03:37:35.716Z,15.23
2023-03-29T03:40:37.247Z,15.21
2023-03-29T03:43:41.496Z,15.19
2023-03-29T03:46:43.087Z,15.20
2023-03-29T03:49:45.229Z,15.14
2023-03-29T03:52:47.215Z,15.21
2023-03-29T03:55:55.909Z,15.19
2023-03-29T03:59:01.050Z,15.33
2023-03-29T04:02:06.687Z,15.44
2023-03-29T04:05:08.945Z,15.52
2023-03-29T04:08:14.008Z,15.49
2023-03-29T04:11:54.063Z,15.74
2023-03-29T04:14:56.043Z,16.07
2023-03-29T04:18:00.651Z,16.31
2023-03-29T04:21:08.191Z,16.31
2023-03-29T04:24:10.400Z,16.52
2023-03-29T04:27:15.013Z,16.76
2023-03-29T04:30:17.047Z,16.89
2023-03-29T04:33:46.664Z,17.02
2023-03-29T04:36:52.995Z,17.03
2023-03-29T04:40:00.333Z,17.17
2023-03-29T04:43:04.471Z,17.23
2023-03-29T04:46:07.847Z,17.37
2023-03-29T04:49:27.414Z,17.48
2023-03-29T04:52:33.011Z,17.69
2023-03-29T04:55:35.671Z,17.78
2023-03-29T04:58:37.371Z,17.86
2023-03-29T05:01:39.559Z,17.91
2023-03-29T05:04:41.273Z,17.91
2023-03-29T05:07:48.113Z,17.96
2023-03-29T05:10:52.320Z,18.02
2023-03-29T05:13:57.137Z,17.93
2023-03-29T05:17:01.382Z,17.92
2023-03-29T05:20:10.469Z,17.82
2023-03-29T05:23:12.924Z,17.79
2023-03-29T05:26:33.783Z,17.93
2023-03-29T05:29:35.506Z,17.93
2023-03-29T05:33:10.401Z,17.76
2023-03-29T05:36:15.600Z,17.95
2023-03-29T05:39:23.478Z,17.94
2023-03-29T05:42:25.185Z,18.12
2023-03-29T05:45:32.435Z,18.20
2023-03-29T05:48:34.311Z,18.20
2023-03-29T05:51:36.354Z,18.23
2023-03-29T05:54:37.827Z,18.32
2023-03-29T05:57:40.665Z,18.26
2023-03-29T06:00:43.788Z,18.44
2023-03-29T06:04:06.493Z,18.68
2023-03-29T06:07:16.447Z,18.82
2023-03-29T06:10:24.708Z,18.84
2023-03-29T06:13:37.730Z,18.66
2023-03-29T06:16:42.179Z,18.76
2023-03-29T06:19:44.927Z,18.80
2023-03-29T06:22:47.909Z,18.86
2023-03-29T06:25:51.385Z,18.97
2023-03-29T06:28:53.369Z,18.92
2023-03-29T06:31:57.163Z,18.96
2023-03-29T06:35:20.690Z,18.78
2023-03-29T06:38:29.156Z,18.83
2023-03-29T06:41:33.811Z,18.75
2023-03-29T06:44:41.267Z,18.79
2023-03-29T06:47:52.652Z,18.83
2023-03-29T06:50:54.614Z,18.76
2023-03-29T06:53:59.414Z,18.72
2023-03-29T06:57:03.859Z,18.96
2023-03-29T07:00:18.938Z,19.26
2023-03-29T07:03:39.146Z,19.31
2023-03-29T07:06:40.863Z,19.58
2023-03-29T07:09:42.369Z,19.74
2023-03-29T07:13:02.432Z,19.55
2023-03-29T07:16:04.218Z,19.62
2023-03-29T07:19:25.198Z,19.51
2023-03-29T07:22:29.580Z,19.36
2023-03-29T07:25:36.264Z,19.47
2023-03-29T07:28:39.294Z,19.35
2023-03-29T07:31:41.566Z,19.50
2023-03-29T07:35:04.212Z,19.35
2023-03-29T07:38:09.484Z,19.16
2023-03-29T07:41:14.455Z,19.35
2023-03-29T07:44:29.406Z,19.35
2023-03-29T07:47:31.456Z,19.32
2023-03-29T07:50:33.673Z,19.52
2023-03-29T07:53:38.498Z,19.62
2023-03-29T07:56:47.578Z,19.75
2023-03-29T08:00:16.992Z,19.83
2023-03-29T08:03:28.817Z,19.93
2023-03-29T08:06:30.815Z,19.78
2023-03-29T08:09:32.343Z,19.84
2023-03-29T08:12:34.095Z,20.02
2023-03-29T08:15:42.077Z,20.08
2023-03-29T08:18:53.712Z,20.34
2023-03-29T08:21:57.578Z,20.26
2023-03-29T08:25:02.610Z,20.22
2023-03-29T08:28:08.617Z,20.65
2023-03-29T08:31:18.247Z,20.57
2023-03-29T08:34:20.410Z,20.76
2023-03-29T08:37:47.408Z,21.01
2023-03-29T08:40:50.708Z,20.97
2023-03-29T08:44:10.770Z,20.80
2023-03-29T08:47:41.636Z,20.56
2023-03-29T08:50:52.763Z,20.32
2023-03-29T08:54:34.094Z,20.20
2023-03-29T08:57:47.842Z,20.31
2023-03-29T09:00:59.394Z,20.53
2023-03-29T09:04:10.180Z,20.46
2023-03-29T09:07:26.892Z,20.62
2023-03-29T09:10:50.204Z,20.30
2023-03-29T09:14:22.271Z,20.17
2023-03-29T09:17:43.334Z,20.08
2023-03-29T09:21:00.508Z,19.99
2023-03-29T09:24:56.374Z,20.04
2023-03-29T09:28:25.832Z,19.95
2023-03-29T09:31:37.184Z,20.00
2023-03-29T09:34:45.643Z,20.14
2023-03-29T09:37:54.679Z,20.09
2023-03-29T09:41:04.213Z,20.13
2023-03-29T09:44:20.569Z,20.29
2023-03-29T09:47:36.059Z,20.50
2023-03-29T09:50:48.776Z,20.42
2023-03-29T09:53:50.556Z,20.48
2023-03-29T09:57:05.737Z,20.68
2023-03-29T10:00:10.576Z,20.65
2023-03-29T10:03:20.494Z,20.55
2023-03-29T10:06:28.599Z,20.88
2023-03-29T10:09:35.694Z,20.70
2023-03-29T10:12:54.091Z,20.65
2023-03-29T10:16:01.397Z,20.61
2023-03-29T10:19:36.837Z,20.70
2023-03-29T10:22:40.445Z,21.10
2023-03-29T10:25:43.027Z,21.09
2023-03-29T10:28:44.861Z,20.98
2023-03-29T10:31:46.497Z,20.91
2023-03-29T10:34:49.826Z,20.85
2023-03-29T10:37:53.306Z,20.88
2023-03-29T10:41:03.598Z,20.73
2023-03-29T10:44:05.566Z,20.76
2023-03-29T10:47:16.006Z,20.98
2023-03-29T10:50:17.567Z,21.00
2023-03-29T10:53:31.653Z,21.09
2023-03-29T10:56:45.169Z,21.34
2023-03-29T10:59:55.654Z,21.73
2023-03-29T11:03:14.459Z,21.77
2023-03-29T11:06:54.219Z,21.69
2023-03-29T11:10:05.677Z,21.78
2023-03-29T11:13:38.922Z,21.84
2023-03-29T11:16:55.335Z,22.26
2023-03-29T11:20:15.873Z,22.27
2023-03-29T11:23:45.829Z,22.30
2023-03-29T11:27:05.958Z,23.33
2023-03-29T11:30:43.417Z,24.21
2023-03-29T11:33:57.084Z,25.22
2023-03-29T11:37:26.699Z,25.75
2023-03-29T11:40:44.971Z,25.77
2023-03-29T11:43:52.902Z,25.79
2023-03-29T11:47:08.259Z,25.68
2023-03-29T11:50:21.574Z,25.72
2023-03-29T11:53:31.529Z,26.29
2023-03-29T11:56:52.184Z,26.30
2023-03-29T12:00:07.508Z,25.86
2023-03-29T12:03:37.074Z,25.74
2023-03-29T12:06:47.684Z,25.35
2023-03-29T12:09:55.006Z,25.44
2023-03-29T12:13:03.141Z,25.70
2023-03-29T12:16:28.054Z,25.91
2023-03-29T12:19:43.207Z,26.29
2023-03-29T12:22:49.172Z,26.03
2023-03-29T12:26:00.415Z,26.58
2023-03-29T12:29:38.942Z,26.62
2023-03-29T12:32:57.631Z,26.84
2023-03-29T12:36:52.007Z,26.82
2023-03-29T12:40:16.521Z,26.54
2023-03-29T12:43:41.517Z,26.48
2023-03-29T12:47:01.458Z,26.64
2023-03-29T12:50:04.640Z,26.64
2023-03-29T12:53:13.346Z,26.77
2023-03-29T12:56:20.801Z,26.45
2023-03-29T12:59:27.181Z,26.89
2023-03-29T13:02:36.999Z,27.05
2023-03-29T13:05:39.184Z,26.95
2023-03-29T13:08:42.487Z,26.95
2023-03-29T13:11:45.617Z,26.84
2023-03-29T13:14:52.573Z,26.87
2023-03-29T13:18:09.136Z,27.19
2023-03-29T13:21:40.864Z,27.52
2023-03-29T13:24:48.549Z,27.43
2023-03-29T13:28:06.061Z,27.32
2023-03-29T13:31:27.373Z,27.93
2023-03-29T13:34:40.117Z,27.62
2023-03-29T13:38:00.380Z,27.75
2023-03-29T13:41:05.006Z,27.60
2023-03-29T13:44:27.152Z,27.35
2023-03-29T13:47:43.235Z,27.34
2023-03-29T13:51:01.098Z,27.15
2023-03-29T13:54:32.170Z,27.32
2023-03-29T13:57:41.303Z,27.39
2023-03-29T14:01:07.229Z,27.58
2023-03-29T14:04:20.888Z,26.91
2023-03-29T14:07:26.231Z,26.86
2023-03-29T14:10:40.929Z,26.81
2023-03-29T14:13:43.175Z,26.86
2023-03-29T14:16:44.768Z,26.96
2023-03-29T14:19:47.467Z,27.16
2023-03-29T14:22:49.517Z,27.55
2023-03-29T14:25:51.638Z,27.82
2023-03-29T14:28:56.676Z,27.83
2023-03-29T14:32:09.515Z,27.97
2023-03-29T14:35:11.094Z,27.64
2023-03-29T14:38:12.870Z,27.23
2023-03-29T14:41:14.642Z,27.62
2023-03-29T14:44:18.673Z,28.26
2023-03-29T14:47:29.556Z,29.22
2023-03-29T14:50:31.438Z,29.17
2023-03-29T14:53:34.554Z,29.04
2023-03-29T14:56:36.633Z,29.28
2023-03-29T14:59:41.320Z,28.83
2023-03-29T15:03:00.181Z,28.02
2023-03-29T15:06:04.622Z,27.56
2023-03-29T15:09:07.077Z,27.14
2023-03-29T15:12:16.187Z,26.85
2023-03-29T15:15:18.098Z,26.53
2023-03-29T15:18:27.043Z,26.36
2023-03-29T15:21:34.042Z,26.30
2023-03-29T15:24:43.218Z,26.17
2023-03-29T15:27:44.749Z,26.47
2023-03-29T15:30:54.257Z,26.82
2023-03-29T15:34:12.481Z,26.78
2023-03-29T15:37:14.012Z,26.91
2023-03-29T15:40:17.131Z,27.01
2023-03-29T15:43:21.217Z,26.81
2023-03-29T15:46:22.790Z,26.61
2023-03-29T15:49:24.881Z,26.42
2023-03-29T15:52:26.358Z,26.32
2023-03-29T15:55:29.847Z,26.51
2023-03-29T15:58:33.488Z,26.61
2023-03-29T16:01:37.396Z,26.58
2023-03-29T16:04:39.263Z,26.64
2023-03-29T16:07:43.738Z,26.45
2023-03-29T16:10:51.015Z,26.33
2023-03-29T16:13:52.779Z,26.04
2023-03-29T16:16:55.833Z,25.89
2023-03-29T16:19:58.494Z,25.84
2023-03-29T16:23:09.404Z,25.85
2023-03-29T16:26:12.839Z,25.78
2023-03-29T16:29:15.969Z,25.78
2023-03-29T16:32:17.594Z,25.87
2023-03-29T16:35:26.128Z,25.85
2023-03-29T16:38:29.146Z,25.86
2023-03-29T16:41:31.520Z,25.87
2023-03-29T16:44:33.075Z,25.72
2023-03-29T16:47:34.571Z,25.71
2023-03-29T16:50:36.203Z,25.76
2023-03-29T16:53:38.069Z,25.77
2023-03-29T16:56:39.599Z,25.43
2023-03-29T16:59:44.962Z,24.44
2023-03-29T17:02:49.749Z,23.96
2023-03-29T17:05:53.586Z,23.74
2023-03-29T17:08:55.009Z,23.51
2023-03-29T17:11:56.445Z,23.55
2023-03-29T17:14:58.005Z,23.44
2023-03-29T17:17:59.517Z,23.17
2023-03-29T17:21:01.911Z,23.24
2023-03-29T17:24:03.814Z,23.32
2023-03-29T17:27:05.357Z,23.15
2023-03-29T17:30:07.346Z,23.02
2023-03-29T17:33:08.866Z,22.74
2023-03-29T17:36:11.112Z,22.82
2023-03-29T17:39:15.210Z,22.84
2023-03-29T17:42:17.337Z,22.87
2023-03-29T17:45:19.768Z,22.83
2023-03-29T17:48:22.850Z,22.79
2023-03-29T17:51:24.723Z,22.75
2023-03-29T17:54:26.273Z,22.38
2023-03-29T17:57:28.097Z,22.21
2023-03-29T18:00:29.651Z,21.95
2023-03-29T18:03:31.890Z,21.81
2023-03-29T18:06:34.931Z,21.40
2023-03-29T18:09:36.904Z,21.45
2023-03-29T18:12:38.748Z,21.48
2023-03-29T18:15:55.706Z,21.40
2023-03-29T18:18:57.266Z,21.31
2023-03-29T18:21:58.850Z,21.29
2023-03-29T18:25:00.341Z,20.37
2023-03-29T18:28:01.779Z,21.13
2023-03-29T18:31:04.375Z,21.27
2023-03-29T18:34:05.898Z,21.34
2023-03-29T18:37:09.220Z,21.52
2023-03-29T18:40:11.127Z,21.60
2023-03-29T18:43:12.814Z,21.57
2023-03-29T18:46:14.633Z,21.62
2023-03-29T18:49:16.412Z,21.57
2023-03-29T18:52:17.952Z,21.68
2023-03-29T18:55:19.412Z,21.85
2023-03-29T18:58:23.968Z,22.04
2023-03-29T19:01:26.033Z,22.16
2023-03-29T19:04:28.733Z,22.23
2023-03-29T19:07:30.409Z,22.30
2023-03-29T19:10:39.282Z,22.23
2023-03-29T19:13:41.413Z,22.10
2023-03-29T19:16:43.056Z,22.01
2023-03-29T19:19:44.833Z,22.16
2023-03-29T19:22:46.625Z,22.20
2023-03-29T19:26:00.254Z,22.16
2023-03-29T19:29:01.835Z,22.02
2023-03-29T19:32:03.739Z,22.08
2023-03-29T19:35:05.796Z,22.46
2023-03-29T19:38:07.365Z,22.53
2023-03-29T19:41:08.950Z,22.25
2023-03-29T19:44:10.523Z,21.96
2023-03-29T19:47:12.060Z,21.78
2023-03-29T19:50:14.224Z,21.65
2023-03-29T19:53:15.909Z,21.60
2023-03-29T19:56:17.783Z,21.30
2023-03-29T19:59:20.123Z,21.65
2023-03-29T20:02:21.618Z,21.92
2023-03-29T20:05:24.131Z,22.05
2023-03-29T20:08:26.334Z,21.95
2023-03-29T20:11:28.839Z,21.89
2023-03-29T20:14:30.800Z,21.76
2023-03-29T20:17:35.401Z,21.69
2023-03-29T20:20:36.882Z,21.69
2023-03-29T20:23:38.376Z,21.76
2023-03-29T20:26:39.815Z,21.72
2023-03-29T20:29:41.287Z,21.69
2023-03-29T20:32:42.845Z,21.64
2023-03-29T20:35:45.752Z,21.64
2023-03-29T20:38:47.440Z,21.74
2023-03-29T20:41:51.532Z,21.64
2023-03-29T20:44:53.746Z,21.83
2023-03-29T20:48:02.087Z,21.75
2023-03-29T20:51:10.032Z,21.84
2023-03-29T20:54:11.508Z,21.94
2023-03-29T20:57:15.943Z,22.02
2023-03-29T21:00:19.714Z,22.11
2023-03-29T21:03:21.351Z,22.19
2023-03-29T21:06:24.325Z,22.14
2023-03-29T21:09:25.837Z,22.00
2023-03-29T21:12:27.501Z,21.92
2023-03-29T21:15:30.581Z,21.85
2023-03-29T21:18:32.364Z,21.67
2023-03-29T21:21:34.996Z,21.65
2023-03-29T21:24:36.566Z,21.71
2023-03-29T21:27:38.555Z,21.64
2023-03-29T21:30:40.159Z,21.61
2023-03-29T21:33:41.612Z,21.67
2023-03-29T21:36:43.049Z,21.64
2023-03-29T21:39:44.500Z,21.72
2023-03-29T21:42:46.267Z,21.77
2023-03-29T21:45:49.679Z,21.75
2023-03-29T21:48:51.220Z,21.81
2023-03-29T21:51:52.886Z,21.80
2023-03-29T21:54:54.319Z,21.76
2023-03-29T21:57:55.824Z,21.65
2023-03-29T22:00:57.402Z,21.71
2023-03-29T22:03:59.021Z,21.69
2023-03-29T22:07:00.531Z,21.68
2023-03-29T22:10:04.208Z,21.88
2023-03-29T22:13:05.910Z,21.99
2023-03-29T22:16:08.765Z,22.02
2023-03-29T22:19:10.648Z,22.07
2023-03-29T22:22:14.369Z,22.07
2023-03-29T22:25:19.525Z,22.07
2023-03-29T22:28:21.088Z,21.94
2023-03-29T22:31:24.119Z,21.82
2023-03-29T22:34:25.618Z,21.90
2023-03-29T22:37:27.072Z,22.03
2023-03-29T22:40:28.648Z,22.07
2023-03-29T22:43:30.485Z,22.08
2023-03-29T22:46:32.014Z,22.06
2023-03-29T22:49:33.658Z,22.11
2023-03-29T22:52:35.270Z,22.01
2023-03-29T22:55:37.165Z,21.96
2023-03-29T22:58:38.680Z,21.82
2023-03-29T23:01:40.541Z,21.72
2023-03-29T23:04:42.285Z,21.77
2023-03-29T23:07:43.825Z,21.83
2023-03-29T23:10:47.013Z,22.01
2023-03-29T23:13:48.829Z,22.11
2023-03-29T23:16:50.447Z,22.21
2023-03-29T23:19:52.052Z,22.23
2023-03-29T23:22:53.457Z,22.34
2023-03-29T23:25:55.843Z,22.23
2023-03-29T23:28:57.544Z,22.11
2023-03-29T23:31:59.555Z,22.13
2023-03-29T23:35:01.279Z,22.20
2023-03-29T23:38:03.493Z,22.14
2023-03-29T23:41:08.332Z,22.28
2023-03-29T23:44:10.212Z,22.29
2023-03-29T23:47:11.723Z,22.13
2023-03-29T23:50:14.522Z,22.14
2023-03-29T23:53:16.086Z,22.27
2023-03-29T23:56:17.593Z,22.48
2023-03-29T23:59:19.185Z,22.62
